sensor_id;sensor_type;location;lat;lon;timestamp;P1;durP1;ratioP1;P2;durP2;ratioP2
24801;SDS011;12898;50.520;12.152;2023-07-22T00:02:22;7.70;;;4.70;;
24801;SDS011;12898;50.520;12.152;2023-07-22T00:04:49;12.13;;;5.20;;
24801;SDS011;12898;50.520;12.152;2023-07-22T00:07:15;7.95;;;4.88;;
24801;SDS011;12898;50.520;12.152;2023-07-22T00:09:41;8.20;;;4.38;;
24801;SDS011;12898;50.520;12.152;2023-07-22T00:12:08;8.00;;;4.68;;
24801;SDS011;12898;50.520;12.152;2023-07-22T00:14:38;16.35;;;5.20;;
24801;SDS011;12898;50.520;12.152;2023-07-22T00:17:05;9.55;;;4.47;;
24801;SDS011;12898;50.520;12.152;2023-07-22T00:19:32;8.02;;;4.85;;
24801;SDS011;12898;50.520;12.152;2023-07-22T00:21:59;8.57;;;4.43;;
24801;SDS011;12898;50.520;12.152;2023-07-22T00:24:25;7.90;;;4.75;;
24801;SDS011;12898;50.520;12.152;2023-07-22T00:26:50;9.95;;;4.90;;
24801;SDS011;12898;50.520;12.152;2023-07-22T00:29:16;9.30;;;4.68;;
24801;SDS011;12898;50.520;12.152;2023-07-22T00:31:42;7.22;;;4.40;;
24801;SDS011;12898;50.520;12.152;2023-07-22T00:34:08;8.27;;;4.45;;
24801;SDS011;12898;50.520;12.152;2023-07-22T00:36:34;9.68;;;4.40;;
24801;SDS011;12898;50.520;12.152;2023-07-22T00:39:00;6.85;;;4.45;;
24801;SDS011;12898;50.520;12.152;2023-07-22T00:41:26;7.78;;;4.50;;
24801;SDS011;12898;50.520;12.152;2023-07-22T00:43:53;10.65;;;4.45;;
24801;SDS011;12898;50.520;12.152;2023-07-22T00:46:19;8.23;;;4.45;;
24801;SDS011;12898;50.520;12.152;2023-07-22T00:48:45;8.20;;;4.80;;
24801;SDS011;12898;50.520;12.152;2023-07-22T00:51:12;11.48;;;4.70;;
24801;SDS011;12898;50.520;12.152;2023-07-22T00:53:38;10.02;;;4.60;;
24801;SDS011;12898;50.520;12.152;2023-07-22T00:56:04;8.32;;;4.82;;
24801;SDS011;12898;50.520;12.152;2023-07-22T00:58:29;8.65;;;4.90;;
24801;SDS011;12898;50.520;12.152;2023-07-22T01:00:55;9.70;;;4.63;;
24801;SDS011;12898;50.520;12.152;2023-07-22T01:03:21;7.47;;;4.38;;
24801;SDS011;12898;50.520;12.152;2023-07-22T01:05:47;8.02;;;4.72;;
24801;SDS011;12898;50.520;12.152;2023-07-22T01:08:14;11.52;;;5.45;;
24801;SDS011;12898;50.520;12.152;2023-07-22T01:10:40;10.90;;;5.57;;
24801;SDS011;12898;50.520;12.152;2023-07-22T01:13:07;14.65;;;5.78;;
24801;SDS011;12898;50.520;12.152;2023-07-22T01:15:33;13.20;;;5.25;;
24801;SDS011;12898;50.520;12.152;2023-07-22T01:17:58;9.65;;;5.47;;
24801;SDS011;12898;50.520;12.152;2023-07-22T01:20:27;9.35;;;5.22;;
24801;SDS011;12898;50.520;12.152;2023-07-22T01:22:54;9.63;;;4.70;;
24801;SDS011;12898;50.520;12.152;2023-07-22T01:25:21;11.35;;;5.30;;
24801;SDS011;12898;50.520;12.152;2023-07-22T01:27:48;10.30;;;5.70;;
24801;SDS011;12898;50.520;12.152;2023-07-22T01:30:15;10.77;;;5.60;;
24801;SDS011;12898;50.520;12.152;2023-07-22T01:32:41;9.38;;;5.93;;
24801;SDS011;12898;50.520;12.152;2023-07-22T01:35:07;10.25;;;5.53;;
24801;SDS011;12898;50.520;12.152;2023-07-22T01:37:34;12.88;;;5.90;;
24801;SDS011;12898;50.520;12.152;2023-07-22T01:40:00;11.13;;;5.80;;
24801;SDS011;12898;50.520;12.152;2023-07-22T01:42:36;11.15;;;6.10;;
24801;SDS011;12898;50.520;12.152;2023-07-22T01:45:01;13.00;;;6.30;;
24801;SDS011;12898;50.520;12.152;2023-07-22T01:47:27;12.48;;;6.72;;
24801;SDS011;12898;50.520;12.152;2023-07-22T01:49:53;17.30;;;6.28;;
24801;SDS011;12898;50.520;12.152;2023-07-22T01:52:18;15.00;;;7.63;;
24801;SDS011;12898;50.520;12.152;2023-07-22T01:54:45;14.27;;;7.00;;
24801;SDS011;12898;50.520;12.152;2023-07-22T01:57:10;11.85;;;6.97;;
24801;SDS011;12898;50.520;12.152;2023-07-22T01:59:36;12.15;;;7.43;;
24801;SDS011;12898;50.520;12.152;2023-07-22T02:02:02;17.85;;;7.43;;
24801;SDS011;12898;50.520;12.152;2023-07-22T02:04:27;13.52;;;8.05;;
24801;SDS011;12898;50.520;12.152;2023-07-22T02:06:53;12.30;;;7.40;;
24801;SDS011;12898;50.520;12.152;2023-07-22T02:09:19;15.05;;;8.15;;
24801;SDS011;12898;50.520;12.152;2023-07-22T02:11:44;14.95;;;8.05;;
24801;SDS011;12898;50.520;12.152;2023-07-22T02:14:10;14.65;;;9.18;;
24801;SDS011;12898;50.520;12.152;2023-07-22T02:16:36;12.82;;;8.57;;
24801;SDS011;12898;50.520;12.152;2023-07-22T02:19:02;17.02;;;9.15;;
24801;SDS011;12898;50.520;12.152;2023-07-22T02:21:28;16.98;;;8.85;;
24801;SDS011;12898;50.520;12.152;2023-07-22T02:23:54;16.23;;;8.40;;
24801;SDS011;12898;50.520;12.152;2023-07-22T02:26:20;16.17;;;8.82;;
24801;SDS011;12898;50.520;12.152;2023-07-22T02:28:46;14.45;;;9.43;;
24801;SDS011;12898;50.520;12.152;2023-07-22T02:31:13;15.32;;;9.40;;
24801;SDS011;12898;50.520;12.152;2023-07-22T02:33:38;13.85;;;8.63;;
24801;SDS011;12898;50.520;12.152;2023-07-22T02:36:04;14.20;;;8.65;;
24801;SDS011;12898;50.520;12.152;2023-07-22T02:38:30;12.90;;;8.73;;
24801;SDS011;12898;50.520;12.152;2023-07-22T02:41:01;17.30;;;8.45;;
24801;SDS011;12898;50.520;12.152;2023-07-22T02:43:28;14.23;;;9.40;;
24801;SDS011;12898;50.520;12.152;2023-07-22T02:45:54;15.13;;;9.00;;
24801;SDS011;12898;50.520;12.152;2023-07-22T02:48:20;13.07;;;8.98;;
24801;SDS011;12898;50.520;12.152;2023-07-22T02:50:46;14.43;;;9.50;;
24801;SDS011;12898;50.520;12.152;2023-07-22T02:53:12;15.38;;;9.95;;
24801;SDS011;12898;50.520;12.152;2023-07-22T02:55:38;16.10;;;10.23;;
24801;SDS011;12898;50.520;12.152;2023-07-22T02:58:03;16.85;;;9.85;;
24801;SDS011;12898;50.520;12.152;2023-07-22T03:00:30;15.48;;;9.60;;
24801;SDS011;12898;50.520;12.152;2023-07-22T03:02:56;15.15;;;9.95;;
24801;SDS011;12898;50.520;12.152;2023-07-22T03:05:25;12.40;;;8.85;;
24801;SDS011;12898;50.520;12.152;2023-07-22T03:07:53;15.38;;;9.45;;
24801;SDS011;12898;50.520;12.152;2023-07-22T03:10:19;13.30;;;9.38;;
24801;SDS011;12898;50.520;12.152;2023-07-22T03:12:45;13.02;;;9.45;;
24801;SDS011;12898;50.520;12.152;2023-07-22T03:15:10;15.50;;;9.95;;
24801;SDS011;12898;50.520;12.152;2023-07-22T03:17:37;14.95;;;9.27;;
24801;SDS011;12898;50.520;12.152;2023-07-22T03:20:07;15.48;;;11.40;;
24801;SDS011;12898;50.520;12.152;2023-07-22T03:22:42;14.40;;;9.95;;
24801;SDS011;12898;50.520;12.152;2023-07-22T03:25:09;17.70;;;9.88;;
24801;SDS011;12898;50.520;12.152;2023-07-22T03:27:35;17.50;;;10.35;;
24801;SDS011;12898;50.520;12.152;2023-07-22T03:30:05;14.13;;;9.85;;
24801;SDS011;12898;50.520;12.152;2023-07-22T03:32:35;13.20;;;8.90;;
24801;SDS011;12898;50.520;12.152;2023-07-22T03:35:01;14.10;;;9.13;;
24801;SDS011;12898;50.520;12.152;2023-07-22T03:37:28;15.45;;;9.68;;
24801;SDS011;12898;50.520;12.152;2023-07-22T03:39:54;15.70;;;10.05;;
24801;SDS011;12898;50.520;12.152;2023-07-22T03:42:19;13.95;;;9.07;;
24801;SDS011;12898;50.520;12.152;2023-07-22T03:44:45;16.05;;;8.88;;
24801;SDS011;12898;50.520;12.152;2023-07-22T03:47:11;14.70;;;10.13;;
24801;SDS011;12898;50.520;12.152;2023-07-22T03:49:37;14.80;;;9.00;;
24801;SDS011;12898;50.520;12.152;2023-07-22T03:52:02;13.32;;;9.07;;
24801;SDS011;12898;50.520;12.152;2023-07-22T03:54:28;15.50;;;9.65;;
24801;SDS011;12898;50.520;12.152;2023-07-22T03:56:54;13.73;;;8.98;;
24801;SDS011;12898;50.520;12.152;2023-07-22T03:59:20;14.70;;;8.85;;
24801;SDS011;12898;50.520;12.152;2023-07-22T04:01:45;16.42;;;10.82;;
24801;SDS011;12898;50.520;12.152;2023-07-22T04:04:12;16.50;;;10.20;;
24801;SDS011;12898;50.520;12.152;2023-07-22T04:06:38;14.77;;;10.00;;
24801;SDS011;12898;50.520;12.152;2023-07-22T04:09:04;14.50;;;9.95;;
24801;SDS011;12898;50.520;12.152;2023-07-22T04:11:29;14.18;;;9.98;;
24801;SDS011;12898;50.520;12.152;2023-07-22T04:13:55;15.63;;;10.55;;
24801;SDS011;12898;50.520;12.152;2023-07-22T04:16:21;14.32;;;9.63;;
24801;SDS011;12898;50.520;12.152;2023-07-22T04:18:46;15.40;;;10.45;;
24801;SDS011;12898;50.520;12.152;2023-07-22T04:21:12;15.85;;;10.30;;
24801;SDS011;12898;50.520;12.152;2023-07-22T04:23:38;14.85;;;10.05;;
24801;SDS011;12898;50.520;12.152;2023-07-22T04:26:03;15.32;;;9.05;;
24801;SDS011;12898;50.520;12.152;2023-07-22T04:28:35;14.25;;;9.77;;
24801;SDS011;12898;50.520;12.152;2023-07-22T04:31:00;15.23;;;8.98;;
24801;SDS011;12898;50.520;12.152;2023-07-22T04:33:27;14.13;;;10.02;;
24801;SDS011;12898;50.520;12.152;2023-07-22T04:35:57;14.27;;;9.80;;
24801;SDS011;12898;50.520;12.152;2023-07-22T04:38:24;13.57;;;9.75;;
24801;SDS011;12898;50.520;12.152;2023-07-22T04:40:50;14.57;;;9.90;;
24801;SDS011;12898;50.520;12.152;2023-07-22T04:43:16;17.17;;;9.52;;
24801;SDS011;12898;50.520;12.152;2023-07-22T04:45:44;16.55;;;10.65;;
24801;SDS011;12898;50.520;12.152;2023-07-22T04:48:12;14.38;;;9.73;;
24801;SDS011;12898;50.520;12.152;2023-07-22T04:50:44;16.60;;;10.88;;
24801;SDS011;12898;50.520;12.152;2023-07-22T04:53:10;15.85;;;10.70;;
24801;SDS011;12898;50.520;12.152;2023-07-22T04:55:40;16.65;;;10.48;;
24801;SDS011;12898;50.520;12.152;2023-07-22T04:58:06;18.60;;;11.88;;
24801;SDS011;12898;50.520;12.152;2023-07-22T05:00:33;19.10;;;11.00;;
24801;SDS011;12898;50.520;12.152;2023-07-22T05:02:59;19.15;;;10.88;;
24801;SDS011;12898;50.520;12.152;2023-07-22T05:05:25;15.20;;;9.70;;
24801;SDS011;12898;50.520;12.152;2023-07-22T05:07:51;14.88;;;10.23;;
24801;SDS011;12898;50.520;12.152;2023-07-22T05:10:17;16.95;;;10.48;;
24801;SDS011;12898;50.520;12.152;2023-07-22T05:12:44;14.63;;;9.77;;
24801;SDS011;12898;50.520;12.152;2023-07-22T05:15:11;14.30;;;9.77;;
24801;SDS011;12898;50.520;12.152;2023-07-22T05:17:38;18.55;;;11.13;;
24801;SDS011;12898;50.520;12.152;2023-07-22T05:20:04;18.17;;;11.90;;
24801;SDS011;12898;50.520;12.152;2023-07-22T05:22:31;18.60;;;11.93;;
24801;SDS011;12898;50.520;12.152;2023-07-22T05:24:57;15.27;;;10.63;;
24801;SDS011;12898;50.520;12.152;2023-07-22T05:27:24;18.08;;;10.88;;
24801;SDS011;12898;50.520;12.152;2023-07-22T05:29:50;17.17;;;10.98;;
24801;SDS011;12898;50.520;12.152;2023-07-22T05:32:16;18.83;;;11.70;;
24801;SDS011;12898;50.520;12.152;2023-07-22T05:34:41;17.88;;;12.57;;
24801;SDS011;12898;50.520;12.152;2023-07-22T05:37:07;16.23;;;10.80;;
24801;SDS011;12898;50.520;12.152;2023-07-22T05:39:33;15.13;;;11.73;;
24801;SDS011;12898;50.520;12.152;2023-07-22T05:41:58;15.63;;;10.45;;
24801;SDS011;12898;50.520;12.152;2023-07-22T05:44:24;19.35;;;10.45;;
24801;SDS011;12898;50.520;12.152;2023-07-22T05:46:50;15.30;;;9.05;;
24801;SDS011;12898;50.520;12.152;2023-07-22T05:49:15;17.08;;;10.93;;
24801;SDS011;12898;50.520;12.152;2023-07-22T05:51:41;14.10;;;9.90;;
24801;SDS011;12898;50.520;12.152;2023-07-22T05:54:07;15.82;;;9.77;;
24801;SDS011;12898;50.520;12.152;2023-07-22T05:56:32;18.88;;;9.60;;
24801;SDS011;12898;50.520;12.152;2023-07-22T05:58:58;17.17;;;10.00;;
24801;SDS011;12898;50.520;12.152;2023-07-22T06:01:24;13.30;;;9.05;;
24801;SDS011;12898;50.520;12.152;2023-07-22T06:03:50;19.27;;;10.50;;
24801;SDS011;12898;50.520;12.152;2023-07-22T06:06:16;15.50;;;9.73;;
24801;SDS011;12898;50.520;12.152;2023-07-22T06:08:41;13.32;;;8.52;;
24801;SDS011;12898;50.520;12.152;2023-07-22T06:11:07;21.23;;;9.30;;
24801;SDS011;12898;50.520;12.152;2023-07-22T06:13:33;15.57;;;10.10;;
24801;SDS011;12898;50.520;12.152;2023-07-22T06:15:58;14.75;;;8.70;;
24801;SDS011;12898;50.520;12.152;2023-07-22T06:18:24;13.70;;;9.23;;
24801;SDS011;12898;50.520;12.152;2023-07-22T06:20:50;15.73;;;10.77;;
24801;SDS011;12898;50.520;12.152;2023-07-22T06:23:16;14.98;;;10.20;;
24801;SDS011;12898;50.520;12.152;2023-07-22T06:25:41;15.70;;;9.93;;
24801;SDS011;12898;50.520;12.152;2023-07-22T06:28:07;15.48;;;10.30;;
24801;SDS011;12898;50.520;12.152;2023-07-22T06:30:34;16.92;;;9.38;;
24801;SDS011;12898;50.520;12.152;2023-07-22T06:32:59;17.33;;;9.98;;
24801;SDS011;12898;50.520;12.152;2023-07-22T06:35:25;15.07;;;9.05;;
24801;SDS011;12898;50.520;12.152;2023-07-22T06:37:51;15.32;;;10.00;;
24801;SDS011;12898;50.520;12.152;2023-07-22T06:40:17;15.50;;;9.45;;
24801;SDS011;12898;50.520;12.152;2023-07-22T06:42:42;14.18;;;9.20;;
24801;SDS011;12898;50.520;12.152;2023-07-22T06:45:08;15.45;;;8.25;;
24801;SDS011;12898;50.520;12.152;2023-07-22T06:47:35;15.25;;;9.02;;
24801;SDS011;12898;50.520;12.152;2023-07-22T06:50:01;11.55;;;7.85;;
24801;SDS011;12898;50.520;12.152;2023-07-22T06:52:31;13.20;;;7.70;;
24801;SDS011;12898;50.520;12.152;2023-07-22T06:54:57;12.73;;;8.40;;
24801;SDS011;12898;50.520;12.152;2023-07-22T06:57:22;14.25;;;7.63;;
24801;SDS011;12898;50.520;12.152;2023-07-22T06:59:50;14.13;;;8.05;;
24801;SDS011;12898;50.520;12.152;2023-07-22T07:02:18;13.35;;;8.38;;
24801;SDS011;12898;50.520;12.152;2023-07-22T07:04:44;10.77;;;7.18;;
24801;SDS011;12898;50.520;12.152;2023-07-22T07:07:10;11.30;;;7.47;;
24801;SDS011;12898;50.520;12.152;2023-07-22T07:09:37;11.05;;;6.68;;
24801;SDS011;12898;50.520;12.152;2023-07-22T07:12:03;9.95;;;6.43;;
24801;SDS011;12898;50.520;12.152;2023-07-22T07:14:29;14.68;;;6.28;;
24801;SDS011;12898;50.520;12.152;2023-07-22T07:16:55;13.95;;;5.78;;
24801;SDS011;12898;50.520;12.152;2023-07-22T07:19:21;12.43;;;5.82;;
24801;SDS011;12898;50.520;12.152;2023-07-22T07:21:47;10.88;;;5.75;;
24801;SDS011;12898;50.520;12.152;2023-07-22T07:24:12;7.80;;;4.90;;
24801;SDS011;12898;50.520;12.152;2023-07-22T07:26:38;9.50;;;5.13;;
24801;SDS011;12898;50.520;12.152;2023-07-22T07:29:04;8.30;;;5.22;;
24801;SDS011;12898;50.520;12.152;2023-07-22T07:31:29;6.82;;;4.18;;
24801;SDS011;12898;50.520;12.152;2023-07-22T07:33:55;7.35;;;4.43;;
24801;SDS011;12898;50.520;12.152;2023-07-22T07:36:21;7.15;;;4.60;;
24801;SDS011;12898;50.520;12.152;2023-07-22T07:38:46;7.43;;;4.57;;
24801;SDS011;12898;50.520;12.152;2023-07-22T07:41:12;7.90;;;4.50;;
24801;SDS011;12898;50.520;12.152;2023-07-22T07:43:39;6.60;;;4.05;;
24801;SDS011;12898;50.520;12.152;2023-07-22T07:48:46;5.13;;;3.80;;
24801;SDS011;12898;50.520;12.152;2023-07-22T07:51:14;5.95;;;3.78;;
24801;SDS011;12898;50.520;12.152;2023-07-22T07:53:41;7.13;;;3.67;;
24801;SDS011;12898;50.520;12.152;2023-07-22T07:56:09;8.32;;;4.35;;
24801;SDS011;12898;50.520;12.152;2023-07-22T07:58:36;7.95;;;4.78;;
24801;SDS011;12898;50.520;12.152;2023-07-22T08:01:03;7.28;;;4.20;;
24801;SDS011;12898;50.520;12.152;2023-07-22T08:03:29;7.65;;;4.32;;
24801;SDS011;12898;50.520;12.152;2023-07-22T08:05:55;8.85;;;5.20;;
24801;SDS011;12898;50.520;12.152;2023-07-22T08:08:21;8.38;;;4.53;;
24801;SDS011;12898;50.520;12.152;2023-07-22T08:10:47;7.43;;;4.60;;
24801;SDS011;12898;50.520;12.152;2023-07-22T08:13:23;8.77;;;4.78;;
24801;SDS011;12898;50.520;12.152;2023-07-22T08:15:49;9.40;;;4.40;;
24801;SDS011;12898;50.520;12.152;2023-07-22T08:18:16;8.60;;;4.75;;
24801;SDS011;12898;50.520;12.152;2023-07-22T08:20:41;7.30;;;4.07;;
24801;SDS011;12898;50.520;12.152;2023-07-22T08:23:07;8.77;;;4.43;;
24801;SDS011;12898;50.520;12.152;2023-07-22T08:25:32;7.03;;;3.95;;
24801;SDS011;12898;50.520;12.152;2023-07-22T08:27:58;10.07;;;3.88;;
24801;SDS011;12898;50.520;12.152;2023-07-22T08:30:24;6.90;;;3.60;;
24801;SDS011;12898;50.520;12.152;2023-07-22T08:32:50;4.95;;;3.58;;
24801;SDS011;12898;50.520;12.152;2023-07-22T08:35:16;6.45;;;3.70;;
24801;SDS011;12898;50.520;12.152;2023-07-22T08:37:42;5.53;;;3.13;;
24801;SDS011;12898;50.520;12.152;2023-07-22T08:40:08;5.55;;;3.60;;
24801;SDS011;12898;50.520;12.152;2023-07-22T08:42:35;6.18;;;3.60;;
24801;SDS011;12898;50.520;12.152;2023-07-22T08:45:03;7.75;;;3.65;;
24801;SDS011;12898;50.520;12.152;2023-07-22T08:47:31;6.30;;;3.50;;
24801;SDS011;12898;50.520;12.152;2023-07-22T08:49:58;5.47;;;3.40;;
24801;SDS011;12898;50.520;12.152;2023-07-22T08:52:27;8.10;;;3.78;;
24801;SDS011;12898;50.520;12.152;2023-07-22T08:54:53;4.88;;;3.38;;
24801;SDS011;12898;50.520;12.152;2023-07-22T08:57:20;4.00;;;2.88;;
24801;SDS011;12898;50.520;12.152;2023-07-22T08:59:47;4.85;;;3.45;;
24801;SDS011;12898;50.520;12.152;2023-07-22T09:02:13;5.25;;;3.30;;
24801;SDS011;12898;50.520;12.152;2023-07-22T09:04:40;6.20;;;3.40;;
24801;SDS011;12898;50.520;12.152;2023-07-22T09:07:07;5.30;;;3.40;;
24801;SDS011;12898;50.520;12.152;2023-07-22T09:09:34;5.13;;;3.15;;
24801;SDS011;12898;50.520;12.152;2023-07-22T09:12:01;6.97;;;3.42;;
24801;SDS011;12898;50.520;12.152;2023-07-22T09:14:27;6.38;;;3.28;;
24801;SDS011;12898;50.520;12.152;2023-07-22T09:16:55;5.55;;;3.38;;
24801;SDS011;12898;50.520;12.152;2023-07-22T09:19:21;7.55;;;3.40;;
24801;SDS011;12898;50.520;12.152;2023-07-22T09:21:46;5.03;;;3.20;;
24801;SDS011;12898;50.520;12.152;2023-07-22T09:24:25;6.30;;;3.50;;
24801;SDS011;12898;50.520;12.152;2023-07-22T09:26:53;5.18;;;3.63;;
24801;SDS011;12898;50.520;12.152;2023-07-22T09:29:32;6.38;;;3.45;;
24801;SDS011;12898;50.520;12.152;2023-07-22T09:31:59;5.07;;;3.38;;
24801;SDS011;12898;50.520;12.152;2023-07-22T09:34:25;5.65;;;3.42;;
24801;SDS011;12898;50.520;12.152;2023-07-22T09:36:53;7.40;;;3.65;;
24801;SDS011;12898;50.520;12.152;2023-07-22T09:39:25;6.72;;;3.22;;
24801;SDS011;12898;50.520;12.152;2023-07-22T09:41:52;5.93;;;3.35;;
24801;SDS011;12898;50.520;12.152;2023-07-22T09:44:17;5.57;;;3.25;;
24801;SDS011;12898;50.520;12.152;2023-07-22T09:46:46;6.22;;;3.85;;
24801;SDS011;12898;50.520;12.152;2023-07-22T09:49:13;6.55;;;3.63;;
24801;SDS011;12898;50.520;12.152;2023-07-22T09:51:43;5.50;;;3.22;;
24801;SDS011;12898;50.520;12.152;2023-07-22T09:54:09;3.70;;;3.00;;
24801;SDS011;12898;50.520;12.152;2023-07-22T09:56:43;3.53;;;2.83;;
24801;SDS011;12898;50.520;12.152;2023-07-22T09:59:14;4.68;;;3.03;;
24801;SDS011;12898;50.520;12.152;2023-07-22T10:01:42;5.15;;;3.33;;
24801;SDS011;12898;50.520;12.152;2023-07-22T10:04:11;7.13;;;3.30;;
24801;SDS011;12898;50.520;12.152;2023-07-22T10:06:40;6.88;;;3.30;;
24801;SDS011;12898;50.520;12.152;2023-07-22T10:09:08;6.65;;;3.70;;
24801;SDS011;12898;50.520;12.152;2023-07-22T10:11:36;5.75;;;3.50;;
24801;SDS011;12898;50.520;12.152;2023-07-22T10:14:04;5.63;;;3.75;;
24801;SDS011;12898;50.520;12.152;2023-07-22T10:16:30;6.18;;;3.40;;
24801;SDS011;12898;50.520;12.152;2023-07-22T10:18:57;4.93;;;3.38;;
24801;SDS011;12898;50.520;12.152;2023-07-22T10:21:24;5.13;;;3.30;;
24801;SDS011;12898;50.520;12.152;2023-07-22T10:23:51;6.32;;;3.22;;
24801;SDS011;12898;50.520;12.152;2023-07-22T10:26:18;5.28;;;3.10;;
24801;SDS011;12898;50.520;12.152;2023-07-22T10:28:45;5.32;;;3.45;;
24801;SDS011;12898;50.520;12.152;2023-07-22T10:31:11;6.10;;;3.20;;
24801;SDS011;12898;50.520;12.152;2023-07-22T10:33:46;4.68;;;3.10;;
24801;SDS011;12898;50.520;12.152;2023-07-22T10:36:14;5.63;;;3.45;;
24801;SDS011;12898;50.520;12.152;2023-07-22T10:38:41;3.95;;;2.92;;
24801;SDS011;12898;50.520;12.152;2023-07-22T10:41:14;5.18;;;3.17;;
24801;SDS011;12898;50.520;12.152;2023-07-22T10:43:54;4.63;;;3.00;;
24801;SDS011;12898;50.520;12.152;2023-07-22T10:46:31;5.47;;;3.20;;
24801;SDS011;12898;50.520;12.152;2023-07-22T10:49:11;6.05;;;3.10;;
24801;SDS011;12898;50.520;12.152;2023-07-22T10:51:41;4.18;;;3.20;;
24801;SDS011;12898;50.520;12.152;2023-07-22T10:54:15;6.68;;;3.20;;
24801;SDS011;12898;50.520;12.152;2023-07-22T10:57:04;5.40;;;3.47;;
24801;SDS011;12898;50.520;12.152;2023-07-22T10:59:52;5.90;;;3.53;;
24801;SDS011;12898;50.520;12.152;2023-07-22T11:02:27;6.03;;;3.53;;
24801;SDS011;12898;50.520;12.152;2023-07-22T11:04:57;5.53;;;3.60;;
24801;SDS011;12898;50.520;12.152;2023-07-22T11:07:33;5.95;;;3.05;;
24801;SDS011;12898;50.520;12.152;2023-07-22T11:10:13;4.30;;;3.20;;
24801;SDS011;12898;50.520;12.152;2023-07-22T11:12:42;4.43;;;3.42;;
24801;SDS011;12898;50.520;12.152;2023-07-22T11:15:09;4.55;;;3.38;;
24801;SDS011;12898;50.520;12.152;2023-07-22T11:17:35;6.10;;;3.70;;
24801;SDS011;12898;50.520;12.152;2023-07-22T11:20:02;6.25;;;3.75;;
24801;SDS011;12898;50.520;12.152;2023-07-22T11:22:29;7.03;;;3.47;;
24801;SDS011;12898;50.520;12.152;2023-07-22T11:24:55;5.75;;;3.63;;
24801;SDS011;12898;50.520;12.152;2023-07-22T11:27:23;5.43;;;3.28;;
24801;SDS011;12898;50.520;12.152;2023-07-22T11:29:48;6.95;;;3.63;;
24801;SDS011;12898;50.520;12.152;2023-07-22T11:32:18;5.93;;;3.50;;
24801;SDS011;12898;50.520;12.152;2023-07-22T11:34:47;8.30;;;3.75;;
24801;SDS011;12898;50.520;12.152;2023-07-22T11:37:13;7.93;;;3.92;;
24801;SDS011;12898;50.520;12.152;2023-07-22T11:39:40;6.53;;;4.10;;
24801;SDS011;12898;50.520;12.152;2023-07-22T11:42:06;7.30;;;4.00;;
24801;SDS011;12898;50.520;12.152;2023-07-22T11:44:32;8.52;;;3.92;;
24801;SDS011;12898;50.520;12.152;2023-07-22T11:49:31;7.40;;;3.80;;
24801;SDS011;12898;50.520;12.152;2023-07-22T11:54:27;6.05;;;3.97;;
24801;SDS011;12898;50.520;12.152;2023-07-22T11:56:54;6.60;;;3.95;;
24801;SDS011;12898;50.520;12.152;2023-07-22T11:59:37;7.32;;;4.50;;
24801;SDS011;12898;50.520;12.152;2023-07-22T12:02:04;7.00;;;3.95;;
24801;SDS011;12898;50.520;12.152;2023-07-22T12:04:31;10.00;;;4.22;;
24801;SDS011;12898;50.520;12.152;2023-07-22T12:06:59;8.10;;;4.60;;
24801;SDS011;12898;50.520;12.152;2023-07-22T12:09:25;7.20;;;3.63;;
24801;SDS011;12898;50.520;12.152;2023-07-22T12:11:58;8.60;;;4.43;;
24801;SDS011;12898;50.520;12.152;2023-07-22T12:14:32;5.57;;;3.80;;
24801;SDS011;12898;50.520;12.152;2023-07-22T12:17:02;6.75;;;3.80;;
24801;SDS011;12898;50.520;12.152;2023-07-22T12:19:28;6.70;;;4.10;;
24801;SDS011;12898;50.520;12.152;2023-07-22T12:21:57;11.32;;;3.75;;
24801;SDS011;12898;50.520;12.152;2023-07-22T12:24:22;8.98;;;4.38;;
24801;SDS011;12898;50.520;12.152;2023-07-22T12:26:48;6.57;;;4.05;;
24801;SDS011;12898;50.520;12.152;2023-07-22T12:29:14;7.47;;;4.75;;
24801;SDS011;12898;50.520;12.152;2023-07-22T12:31:40;6.70;;;4.20;;
24801;SDS011;12898;50.520;12.152;2023-07-22T12:34:05;7.65;;;4.07;;
24801;SDS011;12898;50.520;12.152;2023-07-22T12:36:31;9.23;;;4.22;;
24801;SDS011;12898;50.520;12.152;2023-07-22T12:38:57;7.88;;;4.63;;
24801;SDS011;12898;50.520;12.152;2023-07-22T12:41:22;6.05;;;3.95;;
24801;SDS011;12898;50.520;12.152;2023-07-22T12:43:48;6.68;;;4.40;;
24801;SDS011;12898;50.520;12.152;2023-07-22T12:46:14;7.75;;;4.18;;
24801;SDS011;12898;50.520;12.152;2023-07-22T12:48:39;6.60;;;4.13;;
24801;SDS011;12898;50.520;12.152;2023-07-22T12:51:05;7.78;;;4.15;;
24801;SDS011;12898;50.520;12.152;2023-07-22T12:53:31;9.93;;;4.40;;
24801;SDS011;12898;50.520;12.152;2023-07-22T12:55:57;7.00;;;3.97;;
24801;SDS011;12898;50.520;12.152;2023-07-22T12:58:22;6.13;;;4.00;;
24801;SDS011;12898;50.520;12.152;2023-07-22T13:00:48;7.68;;;4.30;;
24801;SDS011;12898;50.520;12.152;2023-07-22T13:03:14;8.60;;;4.47;;
24801;SDS011;12898;50.520;12.152;2023-07-22T13:05:39;7.80;;;4.38;;
24801;SDS011;12898;50.520;12.152;2023-07-22T13:08:05;6.97;;;3.92;;
24801;SDS011;12898;50.520;12.152;2023-07-22T13:10:33;6.00;;;3.70;;
24801;SDS011;12898;50.520;12.152;2023-07-22T13:13:02;8.20;;;4.05;;
24801;SDS011;12898;50.520;12.152;2023-07-22T13:15:27;5.72;;;3.50;;
24801;SDS011;12898;50.520;12.152;2023-07-22T13:17:53;15.15;;;4.13;;
24801;SDS011;12898;50.520;12.152;2023-07-22T13:20:18;7.22;;;3.78;;
24801;SDS011;12898;50.520;12.152;2023-07-22T13:22:44;6.18;;;3.90;;
24801;SDS011;12898;50.520;12.152;2023-07-22T13:25:10;6.68;;;3.83;;
24801;SDS011;12898;50.520;12.152;2023-07-22T13:27:35;7.68;;;4.18;;
24801;SDS011;12898;50.520;12.152;2023-07-22T13:30:05;6.93;;;3.63;;
24801;SDS011;12898;50.520;12.152;2023-07-22T13:32:34;8.25;;;4.03;;
24801;SDS011;12898;50.520;12.152;2023-07-22T13:34:59;7.38;;;3.75;;
24801;SDS011;12898;50.520;12.152;2023-07-22T13:37:25;9.35;;;4.10;;
24801;SDS011;12898;50.520;12.152;2023-07-22T13:39:51;7.75;;;4.32;;
24801;SDS011;12898;50.520;12.152;2023-07-22T13:42:18;5.97;;;3.55;;
24801;SDS011;12898;50.520;12.152;2023-07-22T13:44:44;5.63;;;3.55;;
24801;SDS011;12898;50.520;12.152;2023-07-22T13:47:09;7.22;;;4.07;;
24801;SDS011;12898;50.520;12.152;2023-07-22T13:49:35;6.63;;;3.53;;
24801;SDS011;12898;50.520;12.152;2023-07-22T13:52:01;6.35;;;3.90;;
24801;SDS011;12898;50.520;12.152;2023-07-22T13:54:27;5.13;;;3.78;;
24801;SDS011;12898;50.520;12.152;2023-07-22T13:56:53;5.80;;;3.67;;
24801;SDS011;12898;50.520;12.152;2023-07-22T13:59:18;5.82;;;3.33;;
24801;SDS011;12898;50.520;12.152;2023-07-22T14:01:44;6.97;;;4.00;;
24801;SDS011;12898;50.520;12.152;2023-07-22T14:04:10;7.50;;;4.45;;
24801;SDS011;12898;50.520;12.152;2023-07-22T14:06:35;8.63;;;4.10;;
24801;SDS011;12898;50.520;12.152;2023-07-22T14:09:01;6.28;;;3.80;;
24801;SDS011;12898;50.520;12.152;2023-07-22T14:11:27;5.93;;;3.97;;
24801;SDS011;12898;50.520;12.152;2023-07-22T14:13:53;7.47;;;3.88;;
24801;SDS011;12898;50.520;12.152;2023-07-22T14:16:18;8.93;;;3.90;;
24801;SDS011;12898;50.520;12.152;2023-07-22T14:18:44;5.80;;;3.85;;
24801;SDS011;12898;50.520;12.152;2023-07-22T14:21:10;7.47;;;3.60;;
24801;SDS011;12898;50.520;12.152;2023-07-22T14:23:36;5.28;;;3.58;;
24801;SDS011;12898;50.520;12.152;2023-07-22T14:26:02;4.85;;;3.22;;
24801;SDS011;12898;50.520;12.152;2023-07-22T14:28:28;6.18;;;3.60;;
24801;SDS011;12898;50.520;12.152;2023-07-22T14:30:53;5.78;;;3.63;;
24801;SDS011;12898;50.520;12.152;2023-07-22T14:33:19;8.93;;;3.47;;